Time;durP1;ratioP1;P1;durP2;ratioP2;P2;SDS_P1;SDS_P2;PMS_P1;PMS_P2;Temp;Humidity;BMP_temperature;BMP_pressure;BME280_temperature;BME280_humidity;BME280_pressure;Samples;Min_cycle;Max_cycle;Signal;HPM_P1;HPM_P2
2022/03/08 00:02:10;;;;;;;14.20;10.27;;;-2.20;54.20;;;-3.92;68.70;98758.22;5024222;28;20479;-71
2022/03/08 00:04:37;;;;;;;15.90;10.73;;;-2.20;54.30;;;-4.21;68.41;98712.69;5023250;28;20565;-71
2022/03/08 00:07:06;;;;;;;13.40;10.67;;;-2.20;54.70;;;-4.20;69.07;98743.41;5018968;28;20490;-70
2022/03/08 00:09:34;;;;;;;13.03;10.10;;;-2.40;54.70;;;-4.11;69.22;98750.72;5022240;28;20556;-69
2022/03/08 00:12:02;;;;;;;13.70;9.97;;;-2.50;55.10;;;-4.17;69.06;98736.13;5023947;28;20557;-70
2022/03/08 00:14:29;;;;;;;14.03;10.40;;;-2.40;55.50;;;-4.09;69.10;98753.22;5021932;28;20466;-70
2022/03/08 00:16:57;;;;;;;13.00;10.60;;;-2.40;55.30;;;-4.07;69.14;98749.53;5020464;28;20566;-70
2022/03/08 00:19:24;;;;;;;13.20;9.53;;;-2.40;55.40;;;-4.16;69.40;98750.19;5020610;28;20466;-70
2022/03/08 00:21:51;;;;;;;13.50;9.70;;;-2.40;55.40;;;-4.18;69.63;98752.06;5021160;28;20468;-69
2022/03/08 00:24:18;;;;;;;12.33;9.37;;;-2.50;55.70;;;-4.15;69.51;98755.34;5018428;28;20477;-71
2022/03/08 00:26:46;;;;;;;12.80;9.60;;;-2.50;55.80;;;-4.10;69.27;98756.81;5036554;28;21044;-69
2022/03/08 00:29:13;;;;;;;10.97;9.10;;;-2.40;55.70;;;-4.18;68.68;98744.13;5024134;28;20473;-70
2022/03/08 00:31:40;;;;;;;11.70;9.10;;;-2.40;55.50;;;-4.14;69.45;98750.94;5019348;28;20473;-70
2022/03/08 00:34:07;;;;;;;12.67;8.83;;;-2.40;55.70;;;-4.23;69.61;98739.19;5018678;28;20463;-70
2022/03/08 00:36:35;;;;;;;11.70;8.33;;;-2.50;55.80;;;-4.07;69.15;98746.91;5018427;28;20860;-71
2022/03/08 00:39:03;;;;;;;10.27;8.43;;;-2.50;56.00;;;-4.11;69.30;98732.22;5021466;28;20481;-71
2022/03/08 00:41:30;;;;;;;10.07;8.43;;;-2.40;55.80;;;-4.23;69.55;98725.16;5019013;28;20463;-72
2022/03/08 00:43:59;;;;;;;9.77;8.40;;;-2.50;55.80;;;-4.13;69.12;98728.84;5020307;28;20954;-72
2022/03/08 00:46:26;;;;;;;12.87;9.63;;;-2.50;56.00;;;-4.20;69.27;98720.50;5020593;28;21039;-70
2022/03/08 00:48:53;;;;;;;11.40;9.30;;;-2.50;55.90;;;-4.28;69.57;98715.75;5019185;28;20930;-71
2022/03/08 00:51:20;;;;;;;15.70;8.77;;;-2.50;56.20;;;-4.18;69.38;98715.09;5022999;28;20508;-71
2022/03/08 00:53:48;;;;;;;11.30;9.20;;;-2.50;56.40;;;-4.24;69.58;98710.25;5019351;28;20466;-71
2022/03/08 00:56:15;;;;;;;16.13;10.23;;;-2.50;56.20;;;-4.28;69.94;98706.97;5018705;28;20466;-72
2022/03/08 00:58:42;;;;;;;10.60;8.50;;;-2.60;56.60;;;-4.13;69.27;98699.81;5020501;28;20459;-71
2022/03/08 01:01:11;;;;;;;12.77;9.70;;;-2.50;56.60;;;-4.10;69.23;98696.97;5018749;28;20486;-71
2022/03/08 01:03:38;;;;;;;15.40;10.13;;;-2.50;56.40;;;-4.12;69.38;98690.94;5037009;28;20602;-70
2022/03/08 01:06:05;;;;;;;12.30;9.00;;;-2.40;56.30;;;-4.12;69.50;98688.31;5020733;28;20464;-71
2022/03/08 01:08:32;;;;;;;10.90;9.53;;;-2.40;56.40;;;-4.21;69.48;98681.00;5003903;28;20482;-71
2022/03/08 01:10:59;;;;;;;13.17;9.17;;;-2.40;56.40;;;-4.18;69.73;98692.22;5023968;28;20551;-70
2022/03/08 01:13:26;;;;;;;12.70;9.73;;;-2.40;56.60;;;-4.20;69.93;98699.41;5036122;28;20576;-72
2022/03/08 01:15:53;;;;;;;12.10;9.97;;;-2.40;56.80;;;-4.26;70.18;98691.88;5021061;28;20509;-70
2022/03/08 01:18:21;;;;;;;11.27;8.43;;;-2.50;56.90;;;-4.26;70.31;98689.25;5019414;28;20861;-70
2022/03/08 01:20:48;;;;;;;11.57;9.60;;;-2.50;57.10;;;-4.29;70.48;98690.31;5019211;28;20459;-72
2022/03/08 01:23:15;;;;;;;12.70;10.20;;;-2.50;57.40;;;-4.37;70.60;98687.34;5014539;28;20489;-71
2022/03/08 01:25:42;;;;;;;9.90;8.27;;;-2.60;57.50;;;-4.33;70.92;98682.72;5018720;28;20553;-70
2022/03/08 01:28:09;;;;;;;11.67;9.27;;;-2.60;57.70;;;-4.32;70.94;98679.97;5022323;28;21193;-70
2022/03/08 01:30:36;;;;;;;13.87;9.17;;;-2.60;57.80;;;-4.46;71.23;98661.59;5019329;28;20487;-72
2022/03/08 01:33:04;;;;;;;12.63;9.73;;;-2.60;58.00;;;-4.41;71.14;98672.66;5019989;28;20454;-71
2022/03/08 01:35:32;;;;;;;12.27;9.20;;;-2.60;58.00;;;-4.51;71.53;98682.16;5020768;28;20454;-70
2022/03/08 01:37:59;;;;;;;12.40;9.23;;;-2.70;58.40;;;-4.66;71.92;98682.22;5019065;28;20545;-71
2022/03/08 01:40:26;;;;;;;11.47;9.93;;;-2.80;58.70;;;-4.80;72.64;98667.34;5019218;28;20477;-70
2022/03/08 01:42:53;;;;;;;12.30;10.00;;;-3.00;59.30;;;-4.52;71.78;98685.72;5015735;28;20466;-70
2022/03/08 01:45:24;;;;;;;15.97;10.17;;;-2.90;60.00;;;-4.48;71.44;98671.38;5020271;28;20551;-71
2022/03/08 01:47:52;;;;;;;13.40;10.50;;;-2.80;59.40;;;-4.58;71.96;98674.66;5015410;28;20519;-70
2022/03/08 01:50:19;;;;;;;14.13;10.17;;;-2.90;59.70;;;-4.59;72.04;98678.25;5019809;28;20451;-71
2022/03/08 01:52:48;;;;;;;11.77;9.07;;;-2.90;60.20;;;-4.67;72.50;98670.00;5016603;28;20532;-72
2022/03/08 01:55:16;;;;;;;11.43;9.73;;;-2.90;60.20;;;-4.63;72.08;98660.91;5017137;28;20495;-70
2022/03/08 01:57:45;;;;;;;15.47;10.00;;;-2.90;60.30;;;-4.93;73.37;98662.00;5016882;28;20461;-71
2022/03/08 02:00:17;;;;;;;10.70;9.23;;;-3.10;60.50;;;-4.93;73.61;98663.81;5020357;28;20461;-71
2022/03/08 02:02:45;;;;;;;17.90;10.57;;;-3.20;61.50;;;-4.77;73.19;98663.66;5020268;28;20489;-71
2022/03/08 02:05:12;;;;;;;13.30;10.80;;;-3.20;62.00;;;-4.76;73.22;98662.72;5022529;28;20465;-70
2022/03/08 02:07:39;;;;;;;9.57;8.13;;;-3.10;61.80;;;-5.01;73.11;98644.06;5021067;28;21276;-71
2022/03/08 02:10:10;;;;;;;12.90;10.10;;;-3.20;61.70;;;-5.06;74.05;98643.53;5025313;28;21577;-70
2022/03/08 02:12:37;;;;;;;13.83;9.97;;;-3.30;62.60;;;-4.94;73.44;98641.88;5022369;28;20454;-70
2022/03/08 02:15:17;;;;;;;12.90;10.13;;;-3.30;62.80;;;-5.03;73.96;98639.84;5023597;28;20571;-70
2022/03/08 02:17:44;;;;;;;11.30;8.37;;;-3.30;62.70;;;-5.03;73.84;98632.78;5022073;28;20494;-70
2022/03/08 02:20:16;;;;;;;12.43;9.40;;;-3.30;63.10;;;-5.02;74.37;98637.09;5022737;28;20493;-70
2022/03/08 02:22:47;;;;;;;17.50;9.63;;;-3.30;63.50;;;-5.41;74.22;98573.75;5021267;28;20551;-70
2022/03/08 02:25:15;;;;;;;12.77;9.33;;;-3.30;63.50;;;-5.19;74.84;98618.91;5022252;28;21121;-71
2022/03/08 02:27:45;;;;;;;12.70;8.83;;;-3.40;63.70;;;-5.12;74.54;98622.88;5022801;28;21015;-70
2022/03/08 02:30:13;;;;;;;14.47;8.97;;;-3.40;64.30;;;-5.09;74.49;98616.53;5022951;28;20492;-70
2022/03/08 02:32:41;;;;;;;10.80;9.70;;;-3.40;64.30;;;-5.18;74.89;98612.72;5020827;28;20585;-70
2022/03/08 02:35:13;;;;;;;12.80;9.10;;;-3.40;64.50;;;-5.11;74.30;98635.09;5022226;28;20454;-71
2022/03/08 02:37:42;;;;;;;13.47;9.40;;;-3.40;64.70;;;-5.17;74.49;98607.34;5021322;28;20555;-70
2022/03/08 02:40:15;;;;;;;11.40;8.90;;;-3.40;64.80;;;-5.13;74.63;98611.47;5019859;28;20457;-70
2022/03/08 02:42:43;;;;;;;13.47;8.37;;;-3.40;64.70;;;-5.15;74.57;98615.16;5021031;28;20553;-71
2022/03/08 02:45:12;;;;;;;10.60;8.63;;;-3.40;64.90;;;-5.38;75.56;98603.47;5036954;28;20573;-70
2022/03/08 02:47:39;;;;;;;13.30;9.73;;;-3.50;65.00;;;-5.33;75.59;98614.56;5037277;28;20454;-71
2022/03/08 02:50:10;;;;;;;15.37;9.47;;;-3.50;65.80;;;-5.45;76.30;98614.41;5020215;28;20478;-72
2022/03/08 02:52:39;;;;;;;9.90;8.83;;;-3.70;66.50;;;-5.56;76.46;98590.53;5020436;28;20956;-71
2022/03/08 02:55:11;;;;;;;13.03;9.93;;;-3.70;67.00;;;-5.19;75.64;98600.47;5022541;28;20461;-70
2022/03/08 02:57:39;;;;;;;10.40;8.60;;;-3.50;67.30;;;-5.18;75.72;98599.53;5020597;28;20559;-70
2022/03/08 03:00:10;;;;;;;14.73;9.37;;;-3.40;66.80;;;-5.36;76.24;98599.78;5020536;28;20478;-70
2022/03/08 03:02:37;;;;;;;11.17;8.53;;;-3.60;67.10;;;-5.83;76.69;98536.13;5022623;28;21186;-69
2022/03/08 03:05:05;;;;;;;10.70;9.60;;;-3.70;67.80;;;-5.23;76.21;98605.13;5020859;28;20698;-70
2022/03/08 03:07:33;;;;;;;11.17;8.97;;;-3.60;68.40;;;-5.35;76.87;98605.94;5035367;28;20466;-70
2022/03/08 03:10:00;;;;;;;11.93;9.17;;;-3.60;68.30;;;-5.54;77.36;98604.47;5021686;28;20466;-71
2022/03/08 03:12:29;;;;;;;15.20;10.73;;;-3.70;68.70;;;-5.53;77.29;98610.59;5017152;28;20577;-71
2022/03/08 03:14:56;;;;;;;13.50;9.83;;;-3.80;69.00;;;-5.72;78.11;98614.41;5016914;28;21044;-71
2022/03/08 03:17:24;;;;;;;14.77;8.90;;;-3.90;69.70;;;-5.69;78.14;98608.94;5017131;28;21006;-71
2022/03/08 03:19:51;;;;;;;11.70;9.80;;;-3.90;70.30;;;-5.49;77.63;98602.41;5022110;28;20466;-71
2022/03/08 03:22:18;;;;;;;12.87;9.80;;;-3.80;70.70;;;-5.50;77.67;98607.75;5020386;28;20447;-70
2022/03/08 03:24:45;;;;;;;10.47;9.40;;;-3.70;70.40;;;-5.59;77.69;98617.94;5022473;28;20965;-70
2022/03/08 03:27:12;;;;;;;13.00;9.33;;;-3.80;70.00;;;-5.61;77.80;98611.06;5021054;28;20473;-69
2022/03/08 03:29:41;;;;;;;10.50;8.90;;;-3.90;70.80;;;-5.52;77.12;98607.88;5021422;28;20532;-68
2022/03/08 03:32:08;;;;;;;11.97;10.67;;;-3.80;70.50;;;-5.45;77.31;98624.94;5023935;28;20462;-68
2022/03/08 03:34:35;;;;;;;15.27;9.97;;;-3.70;70.60;;;-5.35;76.88;98621.72;5022111;28;21016;-69
2022/03/08 03:37:03;;;;;;;12.67;9.97;;;-3.70;70.30;;;-5.33;76.94;98625.09;5020731;28;20453;-70
2022/03/08 03:39:31;;;;;;;12.53;9.60;;;-3.60;70.30;;;-5.39;76.94;98607.91;5025964;28;20559;-70
2022/03/08 03:41:58;;;;;;;14.13;9.77;;;-3.60;70.20;;;-5.31;76.84;98615.31;5023707;28;21054;-70
2022/03/08 03:44:25;;;;;;;11.77;9.70;;;-3.50;70.00;;;-5.33;77.05;98617.19;5025506;28;20462;-71
2022/03/08 03:46:54;;;;;;;12.83;9.73;;;-3.50;70.30;;;-5.32;77.04;98611.81;5023859;28;20500;-72
2022/03/08 03:49:21;;;;;;;14.73;10.63;;;-3.50;70.20;;;-5.44;77.59;98612.63;5020955;28;20513;-69
2022/03/08 03:51:50;;;;;;;14.10;9.50;;;-3.60;70.20;;;-5.63;78.40;98597.16;5022405;28;21365;-71
2022/03/08 03:54:18;;;;;;;13.10;9.50;;;-3.70;70.90;;;-5.55;78.13;98595.72;5023572;28;20465;-71
2022/03/08 03:56:45;;;;;;;13.90;10.30;;;-3.70;71.40;;;-5.61;78.36;98597.91;5022875;28;20461;-70
2022/03/08 03:59:12;;;;;;;17.10;10.37;;;-3.80;71.40;;;-5.85;79.51;98599.38;5023433;28;20561;-72
2022/03/08 04:01:40;;;;;;;18.73;10.23;;;-4.00;72.10;;;-5.97;80.31;98601.00;5024783;28;20462;-70
2022/03/08 04:04:08;;;;;;;15.77;10.43;;;-4.20;73.20;;;-6.00;80.71;98595.09;5020621;28;21030;-71
2022/03/08 04:06:36;;;;;;;13.40;11.03;;;-4.20;74.50;;;-5.82;79.82;98598.34;5020167;28;20466;-71
2022/03/08 04:09:05;;;;;;;16.03;11.00;;;-4.10;74.50;;;-5.74;79.72;98600.50;5021679;28;20988;-71
2022/03/08 04:11:32;;;;;;;12.97;10.60;;;-4.10;74.50;;;-5.87;80.12;98603.03;5019793;28;20549;-71
2022/03/08 04:13:59;;;;;;;12.00;10.03;;;-4.10;74.40;;;-6.01;80.08;98599.47;5019692;28;21247;-71
2022/03/08 04:16:26;;;;;;;13.83;10.13;;;-4.20;75.30;;;-5.77;79.28;98596.25;5016310;28;20455;-70
2022/03/08 04:18:54;;;;;;;11.23;9.60;;;-4.10;75.10;;;-5.55;78.02;98590.47;5020895;28;20458;-71
2022/03/08 04:21:22;;;;;;;13.77;9.90;;;-3.90;74.40;;;-5.66;78.31;98607.91;5019984;28;20513;-72
2022/03/08 04:23:49;;;;;;;13.97;9.13;;;-3.90;73.00;;;-5.64;78.43;98611.28;5021008;28;21049;-70
2022/03/08 04:26:16;;;;;;;13.20;9.10;;;-3.90;73.00;;;-5.69;78.09;98615.06;5017314;28;20557;-72
2022/03/08 04:28:43;;;;;;;13.07;9.90;;;-3.90;72.80;;;-5.85;78.61;98609.91;5022070;28;20545;-70
2022/03/08 04:31:10;;;;;;;12.67;9.87;;;-4.00;72.80;;;-5.74;78.85;98611.84;5020058;28;20957;-70
2022/03/08 04:33:37;;;;;;;18.70;10.83;;;-4.10;73.90;;;-5.73;79.01;98605.66;5017213;28;20518;-69
2022/03/08 04:36:05;;;;;;;12.00;9.33;;;-4.00;73.70;;;-5.77;78.89;98606.78;5020476;28;20548;-69
2022/03/08 04:38:33;;;;;;;12.63;9.27;;;-4.00;73.60;;;-5.87;78.66;98605.66;5020629;28;20552;-69
2022/03/08 04:41:02;;;;;;;12.73;9.40;;;-4.00;73.50;;;-5.97;79.38;98608.91;5021544;28;20881;-70
2022/03/08 04:43:29;;;;;;;13.30;9.37;;;-4.20;73.60;;;-5.95;79.31;98613.22;5022707;28;20455;-71
2022/03/08 04:45:56;;;;;;;16.20;10.20;;;-4.20;74.10;;;-6.05;79.71;98611.19;5021878;28;20872;-69
2022/03/08 04:48:23;;;;;;;14.67;10.03;;;-4.30;74.00;;;-6.20;80.53;98617.41;5022782;28;20941;-72
2022/03/08 04:50:50;;;;;;;12.07;10.00;;;-4.40;74.20;;;-6.46;81.57;98614.56;5022328;28;20904;-70
2022/03/08 04:53:17;;;;;;;13.40;9.90;;;-4.60;75.50;;;-6.56;82.50;98620.41;5017542;28;21019;-70
2022/03/08 04:55:46;;;;;;;14.43;10.30;;;-4.70;77.30;;;-6.64;82.98;98614.72;5020310;28;20552;-70
2022/03/08 04:58:13;;;;;;;15.00;11.40;;;-4.70;78.80;;;-6.64;82.88;98617.38;5020596;28;20924;-71
2022/03/08 05:00:40;;;;;;;12.57;9.50;;;-4.80;80.00;;;-6.53;82.98;98618.50;5021196;28;20541;-70
2022/03/08 05:03:07;;;;;;;13.53;9.80;;;-4.80;79.50;;;-6.69;83.83;98615.00;5018740;28;20972;-72
2022/03/08 05:05:34;;;;;;;12.90;10.27;;;-4.90;79.60;;;-6.78;84.14;98620.81;5020583;28;20473;-70
2022/03/08 05:08:03;;;;;;;14.67;10.00;;;-5.00;81.00;;;-6.73;84.33;98625.81;5017712;28;20953;-70
2022/03/08 05:10:30;;;;;;;15.90;11.33;;;-5.00;82.30;;;-6.81;83.96;98625.41;5017727;28;20477;-70
2022/03/08 05:13:00;;;;;;;15.40;10.30;;;-5.00;82.30;;;-6.79;84.34;98631.41;5019101;28;20477;-71
2022/03/08 05:15:27;;;;;;;13.00;9.97;;;-5.10;82.80;;;-6.81;84.25;98623.66;5019982;28;20474;-70
2022/03/08 05:17:54;;;;;;;17.33;10.67;;;-5.10;83.40;;;-6.87;85.38;98627.47;5019751;28;20556;-72
2022/03/08 05:20:21;;;;;;;15.53;11.23;;;-5.00;83.40;;;-6.80;84.99;98632.34;5021769;28;20469;-71
2022/03/08 05:22:48;;;;;;;13.20;10.53;;;-5.00;83.70;;;-6.77;84.76;98632.16;5019707;28;20977;-70
2022/03/08 05:25:15;;;;;;;12.50;9.97;;;-5.00;83.30;;;-6.74;84.77;98626.75;5034924;28;20907;-69
2022/03/08 05:27:43;;;;;;;13.27;11.03;;;-5.00;84.10;;;-6.69;84.02;98627.31;5019983;28;20867;-69
2022/03/08 05:30:13;;;;;;;14.47;9.67;;;-5.00;83.70;;;-6.62;84.14;98625.16;5017772;28;20565;-71
2022/03/08 05:32:40;;;;;;;14.13;11.00;;;-4.90;82.70;;;-6.67;84.89;98622.81;5020224;28;20453;-72
2022/03/08 05:35:08;;;;;;;15.10;10.13;;;-4.90;83.20;;;-6.29;84.05;98621.44;5034682;28;20446;-70
2022/03/08 05:37:36;;;;;;;14.70;10.80;;;-4.80;85.30;;;-6.14;82.23;98625.75;5016772;28;20902;-75
2022/03/08 05:40:06;;;;;;;16.27;10.60;;;-4.50;82.00;;;-6.14;82.28;98638.91;5038031;28;20458;-80
2022/03/08 05:42:33;;;;;;;14.70;10.93;;;-4.40;80.30;;;-6.34;82.45;98631.41;5037466;28;20546;-77
2022/03/08 05:45:01;;;;;;;16.87;11.97;;;-4.50;79.90;;;-6.52;84.03;98631.59;5024409;28;20577;-76
2022/03/08 05:47:29;;;;;;;17.73;10.27;;;-4.70;80.60;;;-6.50;83.88;98628.84;5023683;28;20475;-77
2022/03/08 05:49:56;;;;;;;14.53;10.60;;;-4.70;82.20;;;-6.33;82.84;98628.66;5024496;28;20583;-78
2022/03/08 05:52:23;;;;;;;17.80;13.23;;;-4.60;81.80;;;-6.23;82.21;98630.75;5023662;28;21021;-78
2022/03/08 05:54:50;;;;;;;12.77;9.87;;;-4.50;80.60;;;-6.16;81.83;98626.78;5024283;28;20541;-80
2022/03/08 05:57:17;;;;;;;14.90;10.70;;;-4.50;79.60;;;-6.07;81.56;98638.53;5023536;28;20974;-80
2022/03/08 05:59:44;;;;;;;16.17;11.80;;;-4.40;79.30;;;-6.02;81.26;98641.75;5024450;28;20462;-78
2022/03/08 06:02:12;;;;;;;12.37;10.17;;;-4.30;78.70;;;-6.10;81.63;98631.69;5026051;28;20476;-74
2022/03/08 06:04:40;;;;;;;12.70;10.13;;;-4.40;78.60;;;-6.03;81.88;98640.03;5027664;28;20983;-74
2022/03/08 06:07:07;;;;;;;15.37;11.00;;;-4.30;78.50;;;-6.12;82.03;98638.84;5026474;28;20501;-77
2022/03/08 06:09:34;;;;;;;17.87;13.13;;;-4.30;79.30;;;-5.88;81.34;98641.69;5029225;28;20518;-84
2022/03/08 06:12:02;;;;;;;17.40;11.00;;;-4.20;79.00;;;-5.83;81.29;98641.41;5030081;28;20516;-79
2022/03/08 06:14:30;;;;;;;20.83;10.73;;;-4.10;79.10;;;-6.06;80.84;98590.25;5026858;28;20813;-83
2022/03/08 06:16:57;;;;;;;16.53;11.70;;;-4.00;78.00;;;-5.72;80.67;98657.34;5027880;28;20461;-74
2022/03/08 06:19:25;;;;;;;19.00;9.97;;;-3.90;77.10;;;-5.73;80.34;98642.50;5035143;28;20457;-73
2022/03/08 06:21:53;;;;;;;14.37;9.20;;;-3.90;76.60;;;-5.56;80.38;98649.34;5050196;28;20953;-74
2022/03/08 06:24:20;;;;;;;16.50;11.80;;;-3.80;76.60;;;-5.54;80.26;98649.22;5031874;28;20465;-71
2022/03/08 06:26:47;;;;;;;13.97;10.27;;;-3.70;76.20;;;-5.63;80.63;98644.56;5018694;28;20570;-69
2022/03/08 06:29:14;;;;;;;19.27;11.50;;;-3.70;76.00;;;-5.55;80.57;98652.81;5023410;28;20965;-69
2022/03/08 06:31:41;;;;;;;17.10;11.40;;;-3.80;76.90;;;-5.40;80.17;98651.81;5021944;28;20589;-70
2022/03/08 06:34:08;;;;;;;19.23;11.90;;;-3.70;76.10;;;-5.60;80.04;98618.03;5022771;28;20468;-69
2022/03/08 06:36:36;;;;;;;19.00;10.23;;;-3.60;75.90;;;-5.26;79.61;98652.72;5021744;28;20964;-70
2022/03/08 06:39:05;;;;;;;14.20;9.70;;;-3.50;75.50;;;-5.25;79.49;98657.06;5022520;28;21212;-70
2022/03/08 06:41:32;;;;;;;18.87;11.60;;;-3.50;75.10;;;-5.08;79.55;98647.19;5022465;28;20486;-71
2022/03/08 06:44:00;;;;;;;19.87;11.57;;;-3.40;75.60;;;-4.97;79.65;98639.44;5021937;28;20545;-70
2022/03/08 06:46:27;;;;;;;17.70;13.27;;;-3.30;76.30;;;-4.65;78.39;98654.91;5023495;28;20575;-68
2022/03/08 06:48:54;;;;;;;17.27;11.67;;;-3.10;75.00;;;-4.60;77.63;98636.13;5021296;28;20549;-70
2022/03/08 06:51:21;;;;;;;16.17;10.70;;;-2.90;73.80;;;-4.49;77.29;98640.69;5022238;28;20480;-69
2022/03/08 06:53:48;;;;;;;21.27;12.03;;;-2.80;73.30;;;-4.43;77.05;98635.00;5019170;28;20521;-71
2022/03/08 06:56:17;;;;;;;16.10;11.43;;;-2.70;72.80;;;-4.36;76.67;98633.63;5019575;28;20464;-69
2022/03/08 06:58:44;;;;;;;19.30;12.10;;;-2.60;72.40;;;-4.29;76.73;98636.69;5019053;28;20487;-70
2022/03/08 07:01:11;;;;;;;16.33;11.70;;;-2.60;72.10;;;-4.41;76.37;98639.19;5022405;28;20479;-71
2022/03/08 07:03:38;;;;;;;20.33;11.10;;;-2.60;71.30;;;-4.25;76.25;98647.88;5040774;28;20462;-70
2022/03/08 07:06:05;;;;;;;26.77;12.03;;;-2.50;71.70;;;-4.12;76.27;98648.72;5023452;28;20546;-70
2022/03/08 07:08:32;;;;;;;38.13;13.90;;;-2.40;71.60;;;-4.29;75.20;98595.31;5015635;28;21008;-70
2022/03/08 07:10:59;;;;;;;51.70;18.80;;;-2.30;71.30;;;-3.92;75.00;98649.97;5020199;28;20564;-71
2022/03/08 07:13:28;;;;;;;15.50;12.07;;;-2.20;70.80;;;-3.77;74.82;98642.75;5014878;28;20277;-70
2022/03/08 07:15:55;;;;;;;22.20;13.07;;;-2.10;70.60;;;-3.62;74.52;98645.25;5021004;28;20545;-69
2022/03/08 07:18:23;;;;;;;16.33;12.03;;;-1.90;70.40;;;-3.59;75.30;98642.38;5020195;28;20574;-71
2022/03/08 07:20:51;;;;;;;19.40;13.93;;;-1.90;70.50;;;-3.50;74.69;98649.66;5022224;28;20466;-69
2022/03/08 07:23:18;;;;;;;24.97;13.20;;;-1.80;70.20;;;-3.25;73.96;98642.59;5017996;28;20562;-71
2022/03/08 07:25:45;;;;;;;17.35;13.10;;;-1.60;70.30;;;-3.04;73.37;98641.97;5019109;28;20558;-71
2022/03/08 07:28:12;;;;;;;18.90;13.73;;;-1.40;69.90;;;-2.83;72.77;98638.69;5017365;28;20248;-72
2022/03/08 07:30:40;;;;;;;24.90;13.60;;;-1.30;69.30;;;-2.80;72.75;98630.53;5020323;28;20482;-72
2022/03/08 07:33:07;;;;;;;17.80;12.97;;;-1.10;69.00;;;-2.59;71.82;98628.03;5017524;28;20484;-70
2022/03/08 07:35:34;;;;;;;22.70;13.43;;;-1.00;68.60;;;-2.47;71.55;98626.28;5033448;28;20549;-70
2022/03/08 07:38:01;;;;;;;18.17;12.53;;;-0.80;68.20;;;-2.31;70.94;98629.44;5017156;28;20601;-71
2022/03/08 07:40:28;;;;;;;16.07;11.97;;;-0.70;68.10;;;-2.30;71.18;98628.47;5036690;28;20461;-71
2022/03/08 07:42:55;;;;;;;20.90;12.60;;;-0.70;67.40;;;-2.17;70.55;98623.06;5018689;28;20461;-69
2022/03/08 07:45:22;;;;;;;22.07;13.10;;;-0.60;67.20;;;-2.01;70.00;98622.72;5018648;28;21008;-72
2022/03/08 07:47:51;;;;;;;17.17;12.47;;;-0.40;67.00;;;-1.89;70.51;98630.69;5019902;28;20887;-70
2022/03/08 07:50:18;;;;;;;17.73;12.20;;;-0.30;66.90;;;-1.80;69.68;98637.06;5023810;28;20480;-70
2022/03/08 07:52:45;;;;;;;15.80;10.87;;;-0.20;66.50;;;-1.56;69.03;98636.91;5021366;28;20478;-74
2022/03/08 07:55:12;;;;;;;23.50;13.57;;;0.00;66.20;;;-1.58;68.72;98639.66;5021968;28;20579;-71
2022/03/08 07:57:39;;;;;;;15.10;11.00;;;0.10;65.60;;;-1.48;68.53;98637.13;5022818;28;20460;-70
2022/03/08 08:00:08;;;;;;;15.07;13.57;;;0.20;65.50;;;-1.33;68.41;98628.91;5018995;28;20449;-70
2022/03/08 08:02:35;;;;;;;16.90;12.60;;;0.30;65.40;;;-1.12;68.14;98634.25;5019633;28;20207;-71
2022/03/08 08:05:04;;;;;;;16.17;12.27;;;0.40;64.90;;;-1.20;68.10;98634.88;5021772;28;20782;-71
2022/03/08 08:07:31;;;;;;;15.03;11.10;;;0.50;64.50;;;-0.92;67.64;98645.88;5021048;28;21091;-71
2022/03/08 08:09:58;;;;;;;16.30;10.97;;;0.60;64.70;;;-0.67;67.33;98637.69;5020715;28;20551;-70
2022/03/08 08:12:25;;;;;;;17.23;11.80;;;0.80;64.50;;;-0.54;66.55;98645.47;5017162;28;20553;-71
2022/03/08 08:14:52;;;;;;;13.73;11.53;;;0.90;63.90;;;-0.39;65.98;98643.34;5018796;28;20876;-73
2022/03/08 08:17:19;;;;;;;13.17;11.43;;;1.10;63.30;;;-0.44;66.39;98643.72;5037378;28;20577;-70
2022/03/08 08:19:46;;;;;;;16.03;12.10;;;1.10;63.00;;;-0.32;66.02;98648.00;5023202;28;20475;-72
2022/03/08 08:22:14;;;;;;;21.70;12.10;;;1.20;63.10;;;-0.06;65.22;98641.44;5022202;28;20541;-74
2022/03/08 08:24:41;;;;;;;15.17;11.20;;;1.40;62.60;;;0.11;64.55;98632.84;5021930;28;20465;-71
2022/03/08 08:27:08;;;;;;;16.37;12.43;;;1.60;62.20;;;0.23;64.34;98635.41;5020786;28;20564;-71
2022/03/08 08:29:35;;;;;;;16.67;11.87;;;1.70;62.10;;;0.49;64.23;98634.94;5022706;28;20469;-71
2022/03/08 08:32:02;;;;;;;15.10;11.10;;;1.90;61.60;;;0.66;62.65;98647.56;5023239;28;20472;-72
2022/03/08 08:34:29;;;;;;;15.20;11.37;;;2.10;61.10;;;0.77;62.57;98637.81;5018731;28;20501;-70
2022/03/08 08:36:56;;;;;;;12.60;11.00;;;2.20;60.40;;;0.80;62.68;98638.34;5019894;28;20460;-70
2022/03/08 08:39:25;;;;;;;19.80;10.63;;;2.30;60.00;;;0.58;62.76;98617.31;5020636;28;20470;-71
2022/03/08 08:41:52;;;;;;;17.93;10.80;;;2.20;59.40;;;0.69;63.01;98638.50;5020790;28;21054;-71
2022/03/08 08:44:19;;;;;;;15.30;11.70;;;2.20;59.40;;;0.96;61.60;98635.16;5021241;28;20460;-75
2022/03/08 08:46:46;;;;;;;14.50;11.10;;;2.40;59.10;;;0.94;60.78;98634.47;5019505;28;20474;-75
2022/03/08 08:49:14;;;;;;;11.97;10.73;;;2.50;58.20;;;0.96;61.17;98636.97;5021989;28;20860;-75
2022/03/08 08:51:41;;;;;;;13.27;11.03;;;2.50;58.00;;;1.24;60.59;98631.81;5016147;28;20503;-74
2022/03/08 08:54:09;;;;;;;12.60;9.97;;;2.60;58.00;;;1.22;59.89;98593.84;5021599;28;20465;-75
2022/03/08 08:56:38;;;;;;;12.53;10.60;;;2.80;57.80;;;1.70;59.03;98618.72;5019726;28;20502;-74
2022/03/08 08:59:07;;;;;;;13.20;10.27;;;3.00;57.20;;;1.70;58.59;98614.22;5035564;28;20518;-78
2022/03/08 09:01:34;;;;;;;16.17;11.10;;;3.20;56.40;;;1.79;57.75;98617.00;5020924;28;20548;-76
2022/03/08 09:04:01;;;;;;;11.67;9.80;;;3.20;55.30;;;1.70;57.34;98618.72;5017749;28;20476;-79
2022/03/08 09:06:28;;;;;;;9.13;8.23;;;3.20;54.50;;;1.82;56.07;98611.38;5018926;28;21014;-82
2022/03/08 09:08:56;;;;;;;12.70;8.47;;;3.30;53.50;;;1.96;56.26;98586.09;5024081;28;20536;-78
2022/03/08 09:11:23;;;;;;;9.33;7.23;;;3.50;53.80;;;1.91;54.80;98567.88;5018028;28;20467;-81
2022/03/08 09:13:51;;;;;;;10.90;8.30;;;3.60;52.50;;;2.42;53.78;98618.16;5023411;28;21136;-77
2022/03/08 09:16:18;;;;;;;11.93;8.40;;;3.80;51.60;;;2.40;53.18;98615.63;5020055;28;21454;-75
2022/03/08 09:18:46;;;;;;;11.77;8.83;;;3.90;50.80;;;2.73;53.35;98620.53;5025312;28;21008;-77
2022/03/08 09:21:13;;;;;;;10.07;8.40;;;4.00;50.90;;;2.63;52.84;98609.91;5026860;28;21143;-76
2022/03/08 09:23:41;;;;;;;11.53;8.87;;;4.10;50.10;;;2.77;52.42;98605.88;5022705;28;20516;-76
2022/03/08 09:26:09;;;;;;;11.20;7.73;;;4.10;50.20;;;3.04;51.22;98598.81;5025240;28;20471;-77
2022/03/08 09:28:37;;;;;;;8.83;7.63;;;4.30;49.70;;;3.11;51.36;98602.56;5021721;28;20484;-76
2022/03/08 09:31:05;;;;;;;11.10;7.57;;;4.50;49.20;;;3.19;50.04;98608.94;5025748;28;20502;-79
2022/03/08 09:33:33;;;;;;;8.50;7.00;;;4.60;48.40;;;3.34;49.99;98606.59;5021408;28;20543;-76
2022/03/08 09:36:00;;;;;;;12.13;7.67;;;4.70;48.40;;;3.23;49.74;98608.50;5024968;28;20466;-77
2022/03/08 09:38:27;;;;;;;5.70;5.07;;;4.70;47.80;;;3.40;45.93;98601.44;5021225;28;20481;-77
2022/03/08 09:40:54;;;;;;;7.63;5.83;;;4.80;45.30;;;3.50;45.99;98585.34;5036311;28;20516;-79
2022/03/08 09:43:21;;;;;;;7.60;6.40;;;4.90;44.60;;;3.52;47.09;98595.84;5021638;28;20468;-76
2022/03/08 09:45:48;;;;;;;8.10;6.00;;;4.90;45.40;;;3.66;46.51;98597.94;5023090;28;20986;-76
2022/03/08 09:48:17;;;;;;;8.53;5.63;;;5.00;44.90;;;3.74;44.93;98591.00;5025877;28;20556;-77
2022/03/08 09:50:44;;;;;;;8.60;4.90;;;5.10;43.60;;;3.83;43.65;98590.03;5025205;28;20589;-76
2022/03/08 09:53:12;;;;;;;7.77;6.20;;;5.20;42.90;;;3.94;43.42;98595.13;5022570;28;20474;-73
2022/03/08 09:55:40;;;;;;;6.03;4.97;;;5.30;42.30;;;4.26;42.43;98590.09;5024023;28;20480;-73
2022/03/08 09:58:07;;;;;;;5.97;4.43;;;5.50;42.20;;;4.31;41.02;98581.56;5020364;28;20546;-71
2022/03/08 10:00:35;;;;;;;9.57;4.53;;;5.60;40.90;;;4.10;40.54;98585.50;5025208;28;20455;-70
2022/03/08 10:03:02;;;;;;;4.83;3.87;;;5.60;40.30;;;4.15;41.34;98588.53;5022076;28;20474;-70
2022/03/08 10:05:39;;;;;;;6.50;4.33;;;5.50;40.10;;;4.16;40.06;98590.22;5022166;28;20561;-73
2022/03/08 10:08:11;;;;;;;5.93;5.33;;;5.60;39.90;;;4.10;39.82;98596.19;5026182;28;20457;-72
2022/03/08 10:10:53;;;;;;;4.37;3.97;;;5.60;39.30;;;4.03;39.84;98579.97;5023824;28;20461;-73
2022/03/08 10:13:23;;;;;;;4.00;3.60;;;5.50;39.10;;;4.13;40.12;98582.50;5022119;28;20558;-72
2022/03/08 10:16:10;;;;;;;6.53;3.90;;;5.50;39.20;;;4.03;39.90;98552.41;5022456;28;20461;-73